createdAt,value
2019-02-08T00:02:20.943Z,22.03
2019-02-08T00:04:51.270Z,24.83
2019-02-08T00:07:21.470Z,23.83
2019-02-08T00:09:51.762Z,22.90
2019-02-08T00:12:22.372Z,24.53
2019-02-08T00:14:52.574Z,24.30
2019-02-08T00:17:23.107Z,24.47
2019-02-08T00:19:53.761Z,22.27
2019-02-08T00:22:23.978Z,24.00
2019-02-08T00:24:54.201Z,22.47
2019-02-08T00:27:24.900Z,22.33
2019-02-08T00:29:55.091Z,24.67
2019-02-08T00:32:25.345Z,23.83
2019-02-08T00:34:55.987Z,27.40
2019-02-08T00:37:26.181Z,21.90
2019-02-08T00:39:56.373Z,21.83
2019-02-08T00:42:26.603Z,25.17
2019-02-08T00:44:56.879Z,21.63
2019-02-08T00:47:27.064Z,25.73
2019-02-08T00:49:57.347Z,22.53
2019-02-08T00:52:27.541Z,22.40
2019-02-08T00:54:57.797Z,25.23
2019-02-08T00:57:28.001Z,26.77
2019-02-08T00:59:58.212Z,24.60
2019-02-08T01:02:28.716Z,24.40
2019-02-08T01:04:59.327Z,24.50
2019-02-08T01:07:29.552Z,25.50
2019-02-08T01:09:59.770Z,24.77
2019-02-08T01:12:30.002Z,24.40
2019-02-08T01:15:00.254Z,24.93
2019-02-08T01:17:31.508Z,24.33
2019-02-08T01:20:02.755Z,24.27
2019-02-08T01:22:33.930Z,24.97
2019-02-08T01:25:05.468Z,22.93
2019-02-08T01:27:35.683Z,21.50
2019-02-08T01:30:09.261Z,23.43
2019-02-08T01:32:39.534Z,23.40
2019-02-08T01:35:10.803Z,23.20
2019-02-08T01:37:41.031Z,22.03
2019-02-08T01:40:16.827Z,21.47
2019-02-08T01:42:47.675Z,23.30
2019-02-08T01:45:20.357Z,19.80
2019-02-08T01:47:50.707Z,23.23
2019-02-08T01:50:22.607Z,22.73
2019-02-08T01:52:52.943Z,20.40
2019-02-08T01:55:23.208Z,21.70
2019-02-08T01:57:53.942Z,20.33
2019-02-08T02:00:26.748Z,19.93
2019-02-08T02:02:57.230Z,18.57
2019-02-08T02:05:27.587Z,21.53
2019-02-08T02:07:57.851Z,17.60
2019-02-08T02:10:36.041Z,19.10
2019-02-08T02:13:06.984Z,21.33
2019-02-08T02:15:37.317Z,21.90
2019-02-08T02:18:08.716Z,21.80
2019-02-08T02:20:40.968Z,21.13
2019-02-08T02:23:13.284Z,23.23
2019-02-08T02:25:43.522Z,21.63
2019-02-08T02:28:13.920Z,20.20
2019-02-08T02:30:44.275Z,22.60
2019-02-08T02:33:14.914Z,21.80
2019-02-08T02:35:45.431Z,22.30
2019-02-08T02:38:16.642Z,21.93
2019-02-08T02:40:46.814Z,20.10
2019-02-08T02:43:17.019Z,19.10
2019-02-08T02:45:47.662Z,19.70
2019-02-08T02:48:17.921Z,19.70
2019-02-08T02:50:48.121Z,18.10
2019-02-08T02:53:18.667Z,18.57
2019-02-08T02:55:48.882Z,17.80
2019-02-08T02:58:19.153Z,17.70
2019-02-08T03:00:49.437Z,18.97
2019-02-08T03:03:19.934Z,17.57
2019-02-08T03:05:50.326Z,16.37
2019-02-08T03:08:21.491Z,17.77
2019-02-08T03:10:51.740Z,16.53
2019-02-08T03:13:22.049Z,19.20
2019-02-08T03:15:52.206Z,17.77
2019-02-08T03:18:22.395Z,14.67
2019-02-08T03:20:52.772Z,14.27
2019-02-08T03:23:23.040Z,12.47
2019-02-08T03:25:53.256Z,12.37
2019-02-08T03:28:23.758Z,12.13
2019-02-08T03:30:56.321Z,12.33
2019-02-08T03:33:26.790Z,12.03
2019-02-08T03:35:57.341Z,9.83
2019-02-08T03:38:27.532Z,10.43
2019-02-08T03:40:57.858Z,11.33
2019-02-08T03:43:28.131Z,10.07
2019-02-08T03:45:58.344Z,12.13
2019-02-08T03:48:28.533Z,11.20
2019-02-08T03:50:58.721Z,11.57
2019-02-08T03:53:28.974Z,10.67
2019-02-08T03:55:59.173Z,12.47
2019-02-08T03:58:29.371Z,12.40
2019-02-08T04:01:04.764Z,12.73
2019-02-08T04:03:35.316Z,12.03
2019-02-08T04:06:06.299Z,12.03
2019-02-08T04:08:36.495Z,13.47
2019-02-08T04:11:06.666Z,14.90
2019-02-08T04:13:36.872Z,14.00
2019-02-08T04:16:07.215Z,13.40
2019-02-08T04:18:37.419Z,16.20
2019-02-08T04:21:07.641Z,14.73
2019-02-08T04:23:37.868Z,13.97
2019-02-08T04:26:08.077Z,13.27
2019-02-08T04:28:38.329Z,13.13
2019-02-08T04:31:08.840Z,12.70
2019-02-08T04:33:39.012Z,13.00
2019-02-08T04:36:09.452Z,12.60
2019-02-08T04:38:39.775Z,13.23
2019-02-08T04:41:09.986Z,12.77
2019-02-08T04:43:40.324Z,13.30
2019-02-08T04:46:10.554Z,12.67
2019-02-08T04:48:40.810Z,13.07
2019-02-08T04:51:11.004Z,11.97
2019-02-08T04:53:41.215Z,11.63
2019-02-08T04:56:11.450Z,13.03
2019-02-08T04:58:41.700Z,12.33
2019-02-08T05:01:11.934Z,10.43
2019-02-08T05:03:42.444Z,11.27
2019-02-08T05:06:12.682Z,10.87
2019-02-08T05:08:42.880Z,11.50
2019-02-08T05:11:13.129Z,14.83
2019-02-08T05:13:43.323Z,15.57
2019-02-08T05:16:13.533Z,18.43
2019-02-08T05:18:43.726Z,16.63
2019-02-08T05:21:14.058Z,13.00
2019-02-08T05:23:44.215Z,12.13
2019-02-08T05:26:14.436Z,16.77
2019-02-08T05:28:44.921Z,14.50
2019-02-08T05:31:15.177Z,12.40
2019-02-08T05:33:45.343Z,13.13
2019-02-08T05:36:15.617Z,12.93
2019-02-08T05:38:45.818Z,13.50
2019-02-08T05:41:16.176Z,13.10
2019-02-08T05:43:46.413Z,11.73
2019-02-08T05:46:16.688Z,13.80
2019-02-08T05:48:46.897Z,15.97
2019-02-08T05:51:17.143Z,13.97
2019-02-08T05:53:47.318Z,11.93
2019-02-08T05:56:17.752Z,12.77
2019-02-08T05:58:48.002Z,12.00
2019-02-08T06:01:18.229Z,11.77
2019-02-08T06:03:48.572Z,10.03
2019-02-08T06:06:18.983Z,9.13
2019-02-08T06:08:49.334Z,8.90
2019-02-08T06:11:19.589Z,8.37
2019-02-08T06:13:49.911Z,7.83
2019-02-08T06:16:21.307Z,7.67
2019-02-08T06:18:51.555Z,8.03
2019-02-08T06:21:21.729Z,7.33
2019-02-08T06:23:51.952Z,6.87
2019-02-08T06:26:22.500Z,6.07
2019-02-08T06:28:52.712Z,6.43
2019-02-08T06:31:23.996Z,6.30
2019-02-08T06:33:54.257Z,6.43
2019-02-08T06:36:24.589Z,6.23
2019-02-08T06:38:54.837Z,5.63
2019-02-08T06:41:25.327Z,5.73
2019-02-08T06:43:55.630Z,5.90
2019-02-08T06:46:26.837Z,5.73
2019-02-08T06:48:57.951Z,4.73
2019-02-08T06:51:28.314Z,5.50
2019-02-08T06:53:58.637Z,5.80
2019-02-08T06:56:46.236Z,5.63
2019-02-08T06:59:35.762Z,6.60
2019-02-08T07:02:17.211Z,5.93
2019-02-08T07:05:06.754Z,6.00
2019-02-08T07:07:52.725Z,5.47
2019-02-08T07:10:50.713Z,5.43
2019-02-08T07:13:39.877Z,5.27
2019-02-08T07:16:35.111Z,7.20
2019-02-08T07:19:30.326Z,5.33
2019-02-08T07:22:25.325Z,5.37
2019-02-08T07:25:18.156Z,5.50
2019-02-08T07:27:49.443Z,5.40
2019-02-08T07:30:52.545Z,5.77
2019-02-08T07:33:37.674Z,8.47
2019-02-08T07:36:38.306Z,10.30
2019-02-08T07:39:19.588Z,9.20
2019-02-08T07:42:26.954Z,11.07
2019-02-08T07:45:06.916Z,11.63
2019-02-08T07:47:44.731Z,11.87
2019-02-08T07:50:33.944Z,10.73
2019-02-08T07:53:37.301Z,11.20
2019-02-08T07:56:25.048Z,11.10
2019-02-08T07:59:17.084Z,12.07
2019-02-08T08:02:08.195Z,11.97
2019-02-08T08:05:03.665Z,11.57
2019-02-08T08:07:53.305Z,10.67
2019-02-08T08:10:38.203Z,10.53
2019-02-08T08:13:38.158Z,11.97
2019-02-08T08:16:24.290Z,13.23
2019-02-08T08:19:24.100Z,11.80
2019-02-08T08:22:08.611Z,11.40
2019-02-08T08:25:03.120Z,13.40
2019-02-08T08:27:52.592Z,12.37
2019-02-08T08:30:38.952Z,13.43
2019-02-08T08:33:33.129Z,12.90
2019-02-08T08:37:08.711Z,12.27
2019-02-08T08:40:29.266Z,12.80
2019-02-08T08:43:52.521Z,13.33
2019-02-08T08:47:14.864Z,14.30
2019-02-08T08:50:25.081Z,15.70
2019-02-08T08:53:39.208Z,15.37
2019-02-08T08:56:58.051Z,15.80
2019-02-08T08:59:54.327Z,14.77
2019-02-08T09:02:58.236Z,16.13
2019-02-08T09:05:55.840Z,15.93
2019-02-08T09:09:02.652Z,16.30
2019-02-08T09:12:22.361Z,16.20
2019-02-08T09:15:22.491Z,15.63
2019-02-08T09:18:42.377Z,14.63
2019-02-08T09:21:55.618Z,14.30
2019-02-08T09:25:13.161Z,14.23
2019-02-08T09:28:23.363Z,13.83
2019-02-08T09:31:42.281Z,13.70
2019-02-08T09:35:14.269Z,14.83
2019-02-08T09:38:43.386Z,14.83
2019-02-08T09:41:43.903Z,14.27
2019-02-08T09:45:16.904Z,14.50
2019-02-08T09:48:42.846Z,14.40
2019-02-08T09:51:59.867Z,13.93
2019-02-08T09:55:10.553Z,13.30
2019-02-08T09:58:20.580Z,13.20
2019-02-08T10:01:43.440Z,12.63
2019-02-08T10:04:41.436Z,14.63
2019-02-08T10:07:51.865Z,13.83
2019-02-08T10:11:09.548Z,15.80
2019-02-08T10:14:31.705Z,14.63
2019-02-08T10:17:42.890Z,14.43
2019-02-08T10:20:59.618Z,15.23
2019-02-08T10:24:09.906Z,15.10
2019-02-08T10:27:18.941Z,15.87
2019-02-08T10:30:43.096Z,16.27
2019-02-08T10:33:55.709Z,15.13
2019-02-08T10:37:05.550Z,14.47
2019-02-08T10:40:23.476Z,15.13
2019-02-08T10:43:50.766Z,15.13
2019-02-08T10:47:00.931Z,13.87
2019-02-08T10:50:04.852Z,15.23
2019-02-08T10:53:11.538Z,13.27
2019-02-08T10:56:17.029Z,13.53
2019-02-08T10:59:29.965Z,14.00
2019-02-08T11:02:41.788Z,14.20
2019-02-08T11:05:59.242Z,12.93
2019-02-08T11:09:09.696Z,12.47
2019-02-08T11:12:28.772Z,12.33
2019-02-08T11:15:39.992Z,12.93
2019-02-08T11:18:45.770Z,13.10
2019-02-08T11:21:15.990Z,12.87
2019-02-08T11:23:48.406Z,12.53
2019-02-08T11:26:23.183Z,12.07
2019-02-08T11:28:51.064Z,12.40
2019-02-08T11:31:21.329Z,11.40
2019-02-08T11:33:52.405Z,11.83
2019-02-08T11:36:24.492Z,11.17
2019-02-08T11:38:54.752Z,10.33
2019-02-08T11:41:25.937Z,9.70
2019-02-08T11:43:56.145Z,11.10
2019-02-08T11:46:29.201Z,10.90
2019-02-08T11:49:02.280Z,10.70
2019-02-08T11:51:33.606Z,10.30
2019-02-08T11:54:04.519Z,10.83
2019-02-08T11:56:34.798Z,10.43
2019-02-08T11:59:05.979Z,11.30
2019-02-08T12:01:39.828Z,10.90
2019-02-08T12:04:12.127Z,11.60
2019-02-08T12:06:43.108Z,12.67
2019-02-08T12:09:18.505Z,11.53
2019-02-08T12:11:50.750Z,12.30
2019-02-08T12:15:10.294Z,12.57
2019-02-08T12:17:43.237Z,12.40
2019-02-08T12:20:18.052Z,12.27
2019-02-08T12:22:49.547Z,12.33
2019-02-08T12:25:21.052Z,13.07
2019-02-08T12:27:52.521Z,12.07
2019-02-08T12:30:29.679Z,11.83
2019-02-08T12:33:02.340Z,12.70
2019-02-08T12:35:33.828Z,12.57
2019-02-08T12:38:04.262Z,12.40
2019-02-08T12:40:34.728Z,12.33
2019-02-08T12:43:05.730Z,14.03
2019-02-08T12:45:35.975Z,10.83
2019-02-08T12:48:06.391Z,10.47
2019-02-08T12:50:37.240Z,12.40
2019-02-08T12:53:07.807Z,11.40
2019-02-08T12:55:38.668Z,11.23
2019-02-08T12:58:08.927Z,9.80
2019-02-08T13:00:39.892Z,10.17
2019-02-08T13:03:12.492Z,10.80
2019-02-08T13:05:42.897Z,10.73
2019-02-08T13:08:13.171Z,10.93
2019-02-08T13:10:43.405Z,10.37
2019-02-08T13:13:16.169Z,11.00
2019-02-08T13:15:47.439Z,11.47
2019-02-08T13:18:17.842Z,11.63
2019-02-08T13:20:50.654Z,11.00
2019-02-08T13:23:33.342Z,11.20
2019-02-08T13:26:07.434Z,11.67
2019-02-08T13:28:40.339Z,10.63
2019-02-08T13:31:10.633Z,11.33
2019-02-08T13:33:49.402Z,10.37
2019-02-08T13:36:28.834Z,10.70
2019-02-08T13:39:08.604Z,10.37
2019-02-08T13:41:49.858Z,11.13
2019-02-08T13:44:30.193Z,10.67
2019-02-08T13:47:11.029Z,11.87
2019-02-08T13:49:51.234Z,10.87
2019-02-08T13:52:30.622Z,11.17
2019-02-08T13:55:15.185Z,11.70
2019-02-08T13:57:57.013Z,11.20
2019-02-08T14:00:38.487Z,10.73
2019-02-08T14:03:20.262Z,10.13
2019-02-08T14:06:01.950Z,10.30
2019-02-08T14:08:41.782Z,11.17
2019-02-08T14:11:20.355Z,11.53
2019-02-08T14:13:59.687Z,11.97
2019-02-08T14:16:40.379Z,11.47
2019-02-08T14:19:20.427Z,12.00
2019-02-08T14:22:02.344Z,10.60
2019-02-08T14:24:42.267Z,12.23
2019-02-08T14:27:14.840Z,11.97
2019-02-08T14:29:47.066Z,12.40
2019-02-08T14:32:18.306Z,11.33
2019-02-08T14:34:49.648Z,11.13
2019-02-08T14:37:21.928Z,12.37
2019-02-08T14:39:53.135Z,11.77
2019-02-08T14:42:23.816Z,11.50
2019-02-08T14:44:54.059Z,12.40
2019-02-08T14:47:25.576Z,11.63
2019-02-08T14:49:56.834Z,11.67
2019-02-08T14:52:28.101Z,11.50
2019-02-08T14:54:58.463Z,11.00
2019-02-08T14:57:28.653Z,12.67
2019-02-08T14:59:59.451Z,12.00
2019-02-08T15:02:29.688Z,11.40
2019-02-08T15:05:00.051Z,11.33
2019-02-08T15:07:30.275Z,11.80
2019-02-08T15:10:00.508Z,11.43
2019-02-08T15:12:30.806Z,11.23
2019-02-08T15:15:03.251Z,11.43
2019-02-08T15:17:33.830Z,10.87
2019-02-08T15:20:07.889Z,11.50
2019-02-08T15:22:38.145Z,11.97
2019-02-08T15:25:08.850Z,11.70
2019-02-08T15:27:39.461Z,12.17
2019-02-08T15:30:12.584Z,12.93
2019-02-08T15:32:42.813Z,12.53
2019-02-08T15:35:13.989Z,12.67
2019-02-08T15:37:45.663Z,14.00
2019-02-08T15:40:25.942Z,13.43
2019-02-08T15:43:19.981Z,13.90
2019-02-08T15:46:01.665Z,14.40
2019-02-08T15:48:40.340Z,13.20
2019-02-08T15:51:10.576Z,13.83
2019-02-08T15:53:40.809Z,16.17
2019-02-08T15:56:16.153Z,14.83
2019-02-08T15:58:47.333Z,14.73
2019-02-08T16:01:17.727Z,15.57
2019-02-08T16:03:48.310Z,16.43
2019-02-08T16:06:18.487Z,15.70
2019-02-08T16:08:48.691Z,15.83
2019-02-08T16:11:18.907Z,15.07
2019-02-08T16:13:49.176Z,16.20
2019-02-08T16:16:19.651Z,16.10
2019-02-08T16:18:49.929Z,16.50
2019-02-08T16:21:20.862Z,16.27
2019-02-08T16:23:51.182Z,15.80
2019-02-08T16:26:21.406Z,17.10
2019-02-08T16:28:51.921Z,17.03
2019-02-08T16:31:22.756Z,15.63
2019-02-08T16:33:53.185Z,16.53
2019-02-08T16:36:23.377Z,17.17
2019-02-08T16:38:53.585Z,16.13
2019-02-08T16:41:24.562Z,16.27
2019-02-08T16:43:54.824Z,16.07
2019-02-08T16:46:25.259Z,16.90
2019-02-08T16:48:55.559Z,16.90
2019-02-08T16:51:26.939Z,16.90
2019-02-08T16:53:57.225Z,15.57
2019-02-08T16:56:27.428Z,17.37
2019-02-08T16:58:57.677Z,17.77
2019-02-08T17:01:28.079Z,16.37
2019-02-08T17:03:58.374Z,16.17
2019-02-08T17:06:28.682Z,17.97
2019-02-08T17:08:58.898Z,16.07
2019-02-08T17:11:29.118Z,17.10
2019-02-08T17:13:59.388Z,17.00
2019-02-08T17:16:29.934Z,18.73
2019-02-08T17:19:00.116Z,16.23
2019-02-08T17:21:30.296Z,17.83
2019-02-08T17:24:00.731Z,17.60
2019-02-08T17:26:30.931Z,17.70
2019-02-08T17:29:01.228Z,16.27
2019-02-08T17:31:31.629Z,18.63
2019-02-08T17:34:01.803Z,16.37
2019-02-08T17:36:32.068Z,17.87
2019-02-08T17:39:02.797Z,17.83
2019-02-08T17:41:34.805Z,18.83
2019-02-08T17:44:05.593Z,20.37
2019-02-08T17:46:35.834Z,20.43
2019-02-08T17:49:06.007Z,19.33
2019-02-08T17:51:37.203Z,21.03
2019-02-08T17:54:07.493Z,22.03
2019-02-08T17:56:38.128Z,18.23
2019-02-08T17:59:08.306Z,19.80
2019-02-08T18:01:38.571Z,22.43
2019-02-08T18:04:32.799Z,21.93
2019-02-08T18:07:03.031Z,21.17
2019-02-08T18:09:33.240Z,19.97
2019-02-08T18:12:03.585Z,20.13
2019-02-08T18:14:33.772Z,20.30
2019-02-08T18:17:04.164Z,22.13
2019-02-08T18:19:34.384Z,23.77
2019-02-08T18:22:04.859Z,22.37
2019-02-08T18:24:35.054Z,26.60
2019-02-08T18:27:05.442Z,27.53
2019-02-08T18:29:35.620Z,23.40
2019-02-08T18:32:05.938Z,21.07
2019-02-08T18:34:36.201Z,19.60
2019-02-08T18:37:06.574Z,20.47
2019-02-08T18:39:38.043Z,20.10
2019-02-08T18:42:08.215Z,19.17
2019-02-08T18:44:38.971Z,18.17
2019-02-08T18:47:09.228Z,18.13
2019-02-08T18:49:39.438Z,17.70
2019-02-08T18:52:09.693Z,18.90
2019-02-08T18:54:39.863Z,17.43
2019-02-08T18:57:10.319Z,18.90
2019-02-08T18:59:41.336Z,17.87
2019-02-08T19:02:11.803Z,17.17
2019-02-08T19:04:41.978Z,18.30
2019-02-08T19:07:12.237Z,16.90
2019-02-08T19:09:42.874Z,18.17
2019-02-08T19:12:13.364Z,15.87
2019-02-08T19:14:43.552Z,15.37
2019-02-08T19:17:14.525Z,16.10
2019-02-08T19:19:45.779Z,16.93
2019-02-08T19:22:15.981Z,16.70
2019-02-08T19:24:46.189Z,17.53
2019-02-08T19:27:16.375Z,20.67
2019-02-08T19:29:46.632Z,22.07
2019-02-08T19:32:17.759Z,20.40
2019-02-08T19:34:48.079Z,19.10
2019-02-08T19:37:18.300Z,17.00
2019-02-08T19:39:48.552Z,16.30
2019-02-08T19:42:18.770Z,16.23
2019-02-08T19:44:48.944Z,15.30
2019-02-08T19:47:19.172Z,15.87
2019-02-08T19:49:49.576Z,15.37
2019-02-08T19:52:19.865Z,15.17
2019-02-08T19:54:50.091Z,16.50
2019-02-08T19:57:20.286Z,16.00
2019-02-08T19:59:50.480Z,15.27
2019-02-08T20:02:20.745Z,15.80
2019-02-08T20:04:51.149Z,15.50
2019-02-08T20:07:21.346Z,14.60
2019-02-08T20:09:51.757Z,16.00
2019-02-08T20:12:22.158Z,15.47
2019-02-08T20:14:52.576Z,14.60
2019-02-08T20:17:23.004Z,15.77
2019-02-08T20:19:53.233Z,15.80
2019-02-08T20:22:23.436Z,14.20
2019-02-08T20:24:54.054Z,14.03
2019-02-08T20:27:24.271Z,15.00
2019-02-08T20:29:54.526Z,13.67
2019-02-08T20:32:24.818Z,14.87
2019-02-08T20:34:55.286Z,15.73
2019-02-08T20:37:25.476Z,14.47
2019-02-08T20:39:55.705Z,14.20
2019-02-08T20:42:25.957Z,13.90
2019-02-08T20:44:56.165Z,13.70
2019-02-08T20:47:26.345Z,12.80
2019-02-08T20:49:56.638Z,14.23
2019-02-08T20:52:26.848Z,12.97
2019-02-08T20:54:57.091Z,13.67
2019-02-08T20:57:27.300Z,13.90
2019-02-08T20:59:57.579Z,12.30
2019-02-08T21:02:27.914Z,11.50
2019-02-08T21:04:58.581Z,12.33
2019-02-08T21:07:28.804Z,11.73
2019-02-08T21:09:59.077Z,12.30
2019-02-08T21:12:29.366Z,12.43
2019-02-08T21:14:59.608Z,13.20
2019-02-08T21:17:30.152Z,12.63
2019-02-08T21:20:00.351Z,12.70
2019-02-08T21:22:30.550Z,12.33
2019-02-08T21:25:01.273Z,12.40
2019-02-08T21:27:32.392Z,12.90
2019-02-08T21:30:03.037Z,12.47
2019-02-08T21:32:33.235Z,11.90
2019-02-08T21:35:04.990Z,12.83
2019-02-08T21:37:36.443Z,11.63
2019-02-08T21:40:09.119Z,13.17
2019-02-08T21:42:39.738Z,11.37
2019-02-08T21:45:13.666Z,13.20
2019-02-08T21:47:43.842Z,12.63
2019-02-08T21:50:15.986Z,11.87
2019-02-08T21:52:46.189Z,11.37
2019-02-08T21:55:17.463Z,11.77
2019-02-08T21:57:47.660Z,10.37
2019-02-08T22:00:21.336Z,11.47
2019-02-08T22:02:51.852Z,10.90
2019-02-08T22:05:24.768Z,10.40
2019-02-08T22:07:55.212Z,9.93
2019-02-08T22:10:25.814Z,8.70
2019-02-08T22:12:57.093Z,8.90
2019-02-08T22:15:30.256Z,8.83
2019-02-08T22:18:01.010Z,9.23
2019-02-08T22:20:31.471Z,7.93
2019-02-08T22:23:01.675Z,7.93
2019-02-08T22:25:32.441Z,8.17
2019-02-08T22:28:02.779Z,8.40
2019-02-08T22:30:33.174Z,7.47
2019-02-08T22:33:03.676Z,6.83
2019-02-08T22:35:33.936Z,8.43
2019-02-08T22:38:04.463Z,7.30
2019-02-08T22:40:34.750Z,8.10
2019-02-08T22:43:05.199Z,7.13
2019-02-08T22:45:36.876Z,7.50
2019-02-08T22:48:07.950Z,7.37
2019-02-08T22:50:38.467Z,6.80
2019-02-08T22:53:10.488Z,7.70
2019-02-08T22:55:40.737Z,7.17
2019-02-08T22:58:11.051Z,8.17
2019-02-08T23:01:11.059Z,7.40
2019-02-08T23:03:41.386Z,7.30
2019-02-08T23:06:11.576Z,7.20
2019-02-08T23:08:41.994Z,8.50
2019-02-08T23:11:13.187Z,7.20
2019-02-08T23:13:43.382Z,6.83
2019-02-08T23:16:13.814Z,7.03
2019-02-08T23:18:44.507Z,7.03
2019-02-08T23:21:14.664Z,6.07
2019-02-08T23:23:45.044Z,6.33
2019-02-08T23:26:15.186Z,6.63
2019-02-08T23:28:46.405Z,5.33
2019-02-08T23:31:16.677Z,6.20
2019-02-08T23:33:46.925Z,5.47
2019-02-08T23:36:18.152Z,5.10
2019-02-08T23:38:48.781Z,5.20
2019-02-08T23:41:18.996Z,5.67
2019-02-08T23:43:50.890Z,5.67
2019-02-08T23:46:21.085Z,5.97
2019-02-08T23:48:51.338Z,5.67
2019-02-08T23:51:22.635Z,5.90
2019-02-08T23:53:53.085Z,5.03
2019-02-08T23:56:23.408Z,5.93
2019-02-08T23:58:53.671Z,6.07
